PTB weather

Dinwiddie County Airport
Petersburg, Virginia, United States

Public forecast

Using degrees Fahrenheit for public forecast. Weather courtesy of forecast.io.

Current aviation weather report (METAR) for Dinwiddie County Airport

Retrieved 2019/12/16 11:55 UTC (41 minutes ago):

KPTB 161155Z AUTO 00000KT 10SM SCT038 OVC044 04/00 A3022 RMK AO2 T00350004 10047 20027

Closest aviation forecast (TAF) to Dinwiddie County Airport

Closest forecast is Richmond International Airport, 21.3 nm (39.4 km) NNE. Retrieved 2019/12/16 12:22 UTC (14 minutes ago):

TAF KRIC 161120Z 1612/1712 11006KT P6SM VCSH BKN060 FM161400 VRB03KT P6SM VCSH OVC025 FM161800 VRB05KT P6SM OVC035 FM170300 07004KT P6SM BKN040 FM170900 00000KT 6SM -RA BR OVC015